»·PEaware :: N380SP KLAX-KSAN

N380SP :: KLAX-KSAN

FLIGHT INFORMATION

Flight Status: Arrived
Operator: Privately registered:
United States
More flights under this callsign
Pilot: Kevin S. (26378)
Aircraft: CESSNA 172 SKYHAWK
(C172)
More flights by this aircraft type
Origin: KLAX Los Angeles Intl
United States
Destination: KSAN San Diego Intl-Lindbergh
United States
More flights between these airports :: More routes between these airports
Route:
File this flight plan on PilotEdge
Remarks:
Altitude:
(Current/Filed)
5,500ft
Speed:
(Current/Filed)
100kts
Departed: 20-Oct-19 07:23 PM
Arrived: 20-Oct-19 09:29 PM
Distance/Time
Traveled:
95nm/2:06
Distance/Time
To Go:
Arrived

Flight Plot

Page will automatically refresh every two minutes.


Map Options




Map Legend


Flown Route
Filed Route
Departure Airport
Arrival Airport
Navaid (VOR, NDB)
Fix

Horizontal Profiles

Position Reports

Time Latitude Longitude Heading Altitude Ground
Speed
20-Oct-19 18:48 33.941600 -118.382526 83 96ft 0kts
20-Oct-19 18:49 33.941600 -118.382526 83 96ft 0kts
20-Oct-19 18:50 33.941600 -118.382526 83 96ft 0kts
20-Oct-19 18:51 33.941600 -118.382526 83 96ft 0kts
20-Oct-19 18:52 33.941600 -118.382526 83 96ft 0kts
20-Oct-19 18:53 33.941605 -118.382476 83 96ft 1kts
20-Oct-19 18:54 33.941607 -118.382452 83 96ft 0kts
20-Oct-19 18:55 33.946713 -118.410373 184 119ft 0kts
20-Oct-19 18:56 33.946713 -118.410373 184 119ft 0kts
20-Oct-19 18:57 33.935427 -118.380304 77 96ft 0kts
20-Oct-19 18:58 33.935427 -118.380304 77 96ft 0kts
20-Oct-19 18:59 33.935427 -118.380304 77 96ft 0kts
20-Oct-19 19:00 33.935427 -118.380304 77 96ft 0kts
20-Oct-19 19:01 33.935427 -118.380304 77 96ft 0kts
20-Oct-19 19:02 33.935449 -118.380177 78 96ft 0kts
20-Oct-19 19:03 33.935469 -118.380058 78 96ft 0kts
20-Oct-19 19:04 33.935488 -118.379946 78 96ft 0kts
20-Oct-19 19:05 33.935496 -118.379898 78 96ft 0kts
20-Oct-19 19:06 33.935501 -118.379864 77 96ft 0kts
20-Oct-19 19:07 33.935427 -118.380304 77 96ft 0kts
20-Oct-19 19:08 33.935427 -118.380304 77 96ft 0kts
20-Oct-19 19:09 33.935427 -118.380304 77 96ft 0kts
20-Oct-19 19:10 33.935427 -118.380304 77 96ft 0kts
20-Oct-19 19:11 33.935427 -118.380304 77 96ft 0kts
20-Oct-19 19:12 33.935427 -118.380304 77 96ft 0kts
20-Oct-19 19:13 33.935427 -118.380304 77 96ft 0kts
20-Oct-19 19:14 33.935427 -118.380304 77 96ft 0kts
20-Oct-19 19:15 33.935427 -118.380304 77 96ft 0kts
20-Oct-19 19:16 33.935582 -118.380459 262 96ft 7kts
20-Oct-19 19:17 33.936102 -118.381512 312 96ft 9kts
20-Oct-19 19:18 33.936521 -118.382675 340 96ft 0kts
20-Oct-19 19:19 33.936521 -118.382675 340 96ft 0kts
20-Oct-19 19:20 33.936521 -118.382675 340 96ft 0kts
20-Oct-19 19:21 33.936768 -118.382779 341 96ft 13kts
20-Oct-19 19:22 33.936746 -118.389118 266 135ft 74kts
20-Oct-19 19:23 33.934253 -118.412582 270 768ft 89kts
20-Oct-19 19:24 33.922294 -118.443513 157 1802ft 103kts
20-Oct-19 19:25 33.900603 -118.423295 133 2557ft 103kts
20-Oct-19 19:26 33.879631 -118.401915 135 2996ft 115kts
20-Oct-19 19:27 33.854800 -118.379235 140 2986ft 109kts
20-Oct-19 19:28 33.830102 -118.355691 141 2969ft 112kts
20-Oct-19 19:29 33.806403 -118.330695 147 2963ft 114kts
20-Oct-19 19:30 33.779902 -118.305864 142 3019ft 111kts
20-Oct-19 19:31 33.756358 -118.273846 125 3506ft 111kts
20-Oct-19 19:32 33.746412 -118.234393 86 4236ft 109kts
20-Oct-19 19:33 33.755132 -118.203648 56 4816ft 103kts
20-Oct-19 19:34 33.763959 -118.176372 64 5322ft 103kts
20-Oct-19 19:35 33.769744 -118.148431 90 5774ft 109kts
20-Oct-19 19:36 33.770377 -118.117712 67 6242ft 102kts
20-Oct-19 19:37 33.775336 -118.088197 77 6653ft 106kts
20-Oct-19 19:38 33.765972 -118.059093 141 7060ft 115kts
20-Oct-19 19:39 33.742448 -118.035770 130 7407ft 121kts
20-Oct-19 19:40 33.721234 -118.008407 129 7813ft 121kts
20-Oct-19 19:41 33.696268 -117.981322 139 7339ft 126kts
20-Oct-19 19:42 33.667610 -117.968888 239 6746ft 124kts
20-Oct-19 19:43 33.660151 -118.009378 291 5579ft 98kts
20-Oct-19 19:44 33.659530 -118.026162 60 3974ft 120kts
20-Oct-19 19:45 33.656281 -118.023702 308 2857ft 102kts
20-Oct-19 19:46 33.675257 -118.009671 44 2658ft 93kts
20-Oct-19 19:47 33.691965 -117.991942 43 2478ft 97kts
20-Oct-19 19:48 33.704322 -117.968263 54 2229ft 97kts
20-Oct-19 19:49 33.718502 -117.940415 68 2247ft 119kts
20-Oct-19 19:50 33.710751 -117.907968 109 1842ft 137kts
20-Oct-19 19:51 33.696098 -117.878575 123 860ft 112kts
20-Oct-19 19:52 33.681059 -117.865461 204 74ft 81kts
20-Oct-19 19:53 33.672068 -117.872185 261 60ft 3kts
20-Oct-19 20:16 33.935429 -118.380306 77 96ft 0kts
20-Oct-19 20:17 33.935429 -118.380306 77 96ft 0kts
20-Oct-19 20:18 33.935429 -118.380306 77 96ft 0kts
20-Oct-19 20:19 33.935429 -118.380306 77 96ft 0kts
20-Oct-19 20:20 33.935429 -118.380306 77 96ft 0kts
20-Oct-19 20:21 33.935461 -118.380307 317 96ft 1kts
20-Oct-19 20:22 33.936564 -118.382720 357 96ft 8kts
20-Oct-19 20:23 33.936610 -118.382722 357 96ft 0kts
20-Oct-19 20:24 33.936610 -118.382722 357 96ft 0kts
20-Oct-19 20:25 33.937186 -118.384273 259 98ft 28kts
20-Oct-19 20:26 33.935911 -118.399390 265 345ft 91kts
20-Oct-19 20:27 33.933190 -118.429714 263 1229ft 93kts
20-Oct-19 20:27 33.929595 -118.467443 263 2232ft 101kts
20-Oct-19 20:29 33.910279 -118.503403 140 2902ft 99kts
20-Oct-19 20:30 33.880624 -118.476460 135 2964ft 113kts
20-Oct-19 20:31 33.852526 -118.448714 139 2714ft 110kts
20-Oct-19 20:31 33.825797 -118.423703 133 2818ft 114kts
20-Oct-19 20:32 33.795375 -118.394569 139 3435ft 122kts
20-Oct-19 20:34 33.761440 -118.357910 140 3453ft 122kts
20-Oct-19 20:34 33.739328 -118.330394 131 3425ft 121kts
20-Oct-19 20:35 33.721936 -118.288419 104 3410ft 119kts
20-Oct-19 20:36 33.720226 -118.245586 87 3452ft 121kts
20-Oct-19 20:37 33.721721 -118.202572 78 3852ft 114kts
20-Oct-19 20:38 33.726330 -118.162059 81 4498ft 114kts
20-Oct-19 20:39 33.707581 -118.126233 120 5054ft 121kts
20-Oct-19 20:40 33.692189 -118.090156 95 5399ft 123kts
20-Oct-19 20:41 33.672037 -118.054505 121 5567ft 132kts
20-Oct-19 20:42 33.652120 -118.019234 119 5581ft 131kts
20-Oct-19 20:43 33.630846 -117.984838 128 5551ft 131kts
20-Oct-19 20:44 33.607447 -117.951747 117 5545ft 131kts
20-Oct-19 20:45 33.592857 -117.913359 114 5565ft 130kts
20-Oct-19 20:46 33.572498 -117.877562 114 5614ft 131kts
20-Oct-19 20:47 33.552278 -117.842112 122 5965ft 129kts
20-Oct-19 20:48 33.531921 -117.807006 133 6305ft 127kts
20-Oct-19 20:49 33.506871 -117.784666 137 7118ft 101kts
20-Oct-19 20:50 33.485230 -117.758651 129 7537ft 120kts
20-Oct-19 20:51 33.460745 -117.727418 128 7677ft 129kts
20-Oct-19 20:52 33.436897 -117.695202 129 7488ft 123kts
20-Oct-19 20:53 33.414638 -117.663049 122 7624ft 126kts
20-Oct-19 20:54 33.395605 -117.627689 134 7631ft 128kts
20-Oct-19 20:55 33.369740 -117.598790 133 7649ft 127kts
20-Oct-19 20:56 33.348947 -117.564761 114 7639ft 127kts
20-Oct-19 20:57 33.330023 -117.529483 134 7639ft 126kts
20-Oct-19 20:58 33.302235 -117.503546 142 7633ft 127kts
20-Oct-19 20:59 33.274932 -117.476525 148 7617ft 128kts
20-Oct-19 21:00 33.244415 -117.454781 144 7598ft 130kts
20-Oct-19 21:01 33.214868 -117.429550 137 7573ft 129kts
20-Oct-19 21:02 33.189148 -117.399581 128 7551ft 128kts
20-Oct-19 21:03 33.158689 -117.376900 156 7525ft 130kts
20-Oct-19 21:04 33.125899 -117.358764 145 7505ft 129kts
20-Oct-19 21:05 33.098101 -117.332237 131 7490ft 127kts
20-Oct-19 21:06 33.088427 -117.295465 85 7532ft 117kts
20-Oct-19 21:07 33.086805 -117.257243 94 7602ft 119kts
20-Oct-19 21:08 33.096347 -117.269402 276 6946ft 114kts
20-Oct-19 21:09 33.089225 -117.301530 182 5703ft 121kts
20-Oct-19 21:10 33.056116 -117.293886 160 5510ft 123kts
20-Oct-19 21:11 33.022610 -117.286203 180 5528ft 125kts
20-Oct-19 21:12 33.002546 -117.265996 75 5696ft 101kts
20-Oct-19 21:13 33.022392 -117.252329 306 5616ft 118kts
20-Oct-19 21:14 33.028963 -117.290649 255 5524ft 122kts
20-Oct-19 21:15 33.000234 -117.291951 145 5474ft 116kts
20-Oct-19 21:16 32.980304 -117.268836 173 4596ft 106kts
20-Oct-19 21:17 32.951281 -117.266381 172 3945ft 106kts
20-Oct-19 21:18 32.922091 -117.265547 173 3540ft 105kts
20-Oct-19 21:19 32.893667 -117.263038 168 3514ft 103kts
20-Oct-19 21:20 32.870732 -117.249209 101 3344ft 90kts
20-Oct-19 21:21 32.851583 -117.233323 167 2601ft 106kts
20-Oct-19 21:22 32.823425 -117.230537 171 2369ft 101kts
20-Oct-19 21:23 32.797099 -117.220776 139 2276ft 102kts
20-Oct-19 21:24 32.776942 -117.197928 127 2279ft 99kts
20-Oct-19 21:25 32.759679 -117.172068 131 1927ft 100kts
20-Oct-19 21:26 32.737370 -117.159594 181 918ft 108kts
20-Oct-19 21:27 32.732797 -117.185930 284 21ft 65kts
20-Oct-19 21:28 32.734710 -117.189653 96 17ft 9kts

Navigation Log

Ident Type
Flight plan parsing failed, navigation log unavailable